This is the latest recevied weather packets stored in our database for station/object N3FWE. If no packets are shown the sender has not sent any weather packets the latest 1 day(s).
| Time | Temp. | Humidity | Pressure | Rain* | Wind** | Luminosity | Snow |
|---|---|---|---|---|---|---|---|
| 1778073599 | 16.11° C | 88% | 1008.7 hPa | 0.51 mm | - | - | - |
| 1778070599 | 16.11° C | 86% | 1009.2 hPa | 0.76 mm | - | - | - |
| 1778069400 | 16.67° C | 84% | 1009.4 hPa | 0.51 mm | - | - | - |
| 1778068200 | 17.22° C | 81% | 1009.5 hPa | 0.25 mm | - | - | - |
| 1778065799 | 18.89° C | 70% | 1008.8 hPa | 0 mm | - | - | - |
| 1778063398 | 19.44° C | 64% | 1008.2 hPa | 0 mm | - | - | - |
| 1778062798 | 19.44° C | 64% | 1008.3 hPa | 0 mm | - | - | - |
| 1778061598 | 19.44° C | 63% | 1008 hPa | 0 mm | - | - | - |
| 1778060998 | 19.44° C | 62% | 1008 hPa | 0 mm | - | - | - |
| 1778057998 | 20° C | 61% | 1008.3 hPa | 0 mm | - | - | - |
| 1778056798 | 20° C | 61% | 1008.5 hPa | 0 mm | - | - | - |
| 1778054998 | 18.33° C | 65% | 1008.5 hPa | 0 mm | - | - | - |
| 1778054398 | 17.22° C | 68% | 1008.6 hPa | 0 mm | - | - | - |
| 1778053198 | 16.67° C | 68% | 1008.5 hPa | 0 mm | - | - | - |
| 1778052598 | 16.67° C | 68% | 1008.6 hPa | 0 mm | - | - | - |
| 1778051397 | 16.67° C | 68% | 1008.7 hPa | 0 mm | - | - | - |
| 1778050798 | 16.67° C | 67% | 1008.8 hPa | 0 mm | - | - | - |
| 1778049598 | 16.67° C | 67% | 1009 hPa | 0 mm | - | - | - |
| 1778048998 | 16.67° C | 66% | 1009.3 hPa | 0 mm | - | - | - |
| 1778048398 | 17.22° C | 66% | 1009.3 hPa | 0 mm | - | - | - |
| 1778047798 | 17.22° C | 65% | 1009.4 hPa | 0 mm | - | - | - |
| 1778045998 | 17.78° C | 63% | 1009.7 hPa | 0 mm | - | - | - |
| 1778043598 | 18.89° C | 56% | 1010 hPa | 0 mm | - | - | - |
| 1778042998 | 19.44° C | 55% | 1010 hPa | 0 mm | - | - | - |
| 1778041801 | 19.44° C | 50% | 1009.9 hPa | 0 mm | - | - | - |
* Rain latest hour (hover to see other rain measurements)
** Current wind speed in m/s (hover to see current wind gust speed)